sensor_id;sensor_type;location;lat;lon;timestamp;temperature;humidity
59208;DHT22;44977;53.132;6.408;2023-06-05T00:04:20;11.50;99.90
59208;DHT22;44977;53.132;6.408;2023-06-05T00:09:21;11.50;99.90
59208;DHT22;44977;53.132;6.408;2023-06-05T00:14:22;11.50;99.90
59208;DHT22;44977;53.132;6.408;2023-06-05T00:19:23;11.50;99.90
59208;DHT22;44977;53.132;6.408;2023-06-05T00:24:23;11.60;99.90
59208;DHT22;44977;53.132;6.408;2023-06-05T00:29:24;11.60;99.90
59208;DHT22;44977;53.132;6.408;2023-06-05T00:34:25;11.60;99.90
59208;DHT22;44977;53.132;6.408;2023-06-05T00:39:26;11.60;99.90
59208;DHT22;44977;53.132;6.408;2023-06-05T00:44:26;11.60;99.90
59208;DHT22;44977;53.132;6.408;2023-06-05T00:49:27;11.60;99.90
59208;DHT22;44977;53.132;6.408;2023-06-05T00:54:29;11.60;99.90
59208;DHT22;44977;53.132;6.408;2023-06-05T00:59:31;11.60;99.90
59208;DHT22;44977;53.132;6.408;2023-06-05T01:04:32;11.60;99.90
59208;DHT22;44977;53.132;6.408;2023-06-05T01:09:33;11.60;99.90
59208;DHT22;44977;53.132;6.408;2023-06-05T01:14:35;11.60;99.90
59208;DHT22;44977;53.132;6.408;2023-06-05T01:19:40;11.60;99.90
59208;DHT22;44977;53.132;6.408;2023-06-05T01:24:41;11.60;99.90
59208;DHT22;44977;53.132;6.408;2023-06-05T01:30:02;11.60;99.90
59208;DHT22;44977;53.132;6.408;2023-06-05T01:35:08;11.60;99.90
59208;DHT22;44977;53.132;6.408;2023-06-05T01:40:17;11.60;99.90
59208;DHT22;44977;53.132;6.408;2023-06-05T01:45:20;11.70;99.90
59208;DHT22;44977;53.132;6.408;2023-06-05T01:50:20;11.70;99.90
59208;DHT22;44977;53.132;6.408;2023-06-05T01:55:22;11.60;99.90
59208;DHT22;44977;53.132;6.408;2023-06-05T02:00:24;11.70;99.90
59208;DHT22;44977;53.132;6.408;2023-06-05T02:05:24;11.70;99.90
59208;DHT22;44977;53.132;6.408;2023-06-05T02:10:29;11.70;99.90
59208;DHT22;44977;53.132;6.408;2023-06-05T02:15:30;11.80;99.90
59208;DHT22;44977;53.132;6.408;2023-06-05T02:20:32;11.80;99.90
59208;DHT22;44977;53.132;6.408;2023-06-05T02:25:33;11.80;99.90
59208;DHT22;44977;53.132;6.408;2023-06-05T02:30:34;11.80;99.90
59208;DHT22;44977;53.132;6.408;2023-06-05T02:35:34;11.80;99.90
59208;DHT22;44977;53.132;6.408;2023-06-05T02:40:36;11.80;99.90
59208;DHT22;44977;53.132;6.408;2023-06-05T02:45:37;11.90;99.90
59208;DHT22;44977;53.132;6.408;2023-06-05T02:50:38;11.90;99.90
59208;DHT22;44977;53.132;6.408;2023-06-05T02:55:38;11.90;99.90
59208;DHT22;44977;53.132;6.408;2023-06-05T03:00:40;11.80;99.90
59208;DHT22;44977;53.132;6.408;2023-06-05T03:05:42;11.90;99.90
59208;DHT22;44977;53.132;6.408;2023-06-05T03:10:43;11.90;99.90
59208;DHT22;44977;53.132;6.408;2023-06-05T03:15:44;11.90;99.90
59208;DHT22;44977;53.132;6.408;2023-06-05T03:20:47;11.90;99.90
59208;DHT22;44977;53.132;6.408;2023-06-05T03:25:50;11.90;99.90
59208;DHT22;44977;53.132;6.408;2023-06-05T03:30:51;12.00;99.90
59208;DHT22;44977;53.132;6.408;2023-06-05T03:35:53;12.00;99.90
59208;DHT22;44977;53.132;6.408;2023-06-05T03:40:56;12.00;99.90
59208;DHT22;44977;53.132;6.408;2023-06-05T03:45:56;12.00;99.90
59208;DHT22;44977;53.132;6.408;2023-06-05T03:50:58;12.00;99.90
59208;DHT22;44977;53.132;6.408;2023-06-05T03:56:01;12.00;99.90
59208;DHT22;44977;53.132;6.408;2023-06-05T04:01:01;12.00;99.90
59208;DHT22;44977;53.132;6.408;2023-06-05T04:06:03;12.10;99.90
59208;DHT22;44977;53.132;6.408;2023-06-05T04:11:03;12.10;99.90
59208;DHT22;44977;53.132;6.408;2023-06-05T04:16:04;12.10;99.90
59208;DHT22;44977;53.132;6.408;2023-06-05T04:21:05;12.10;99.90
59208;DHT22;44977;53.132;6.408;2023-06-05T04:26:06;12.10;99.90
59208;DHT22;44977;53.132;6.408;2023-06-05T04:31:06;12.20;99.90
59208;DHT22;44977;53.132;6.408;2023-06-05T04:36:07;12.20;99.90
59208;DHT22;44977;53.132;6.408;2023-06-05T04:41:08;12.20;99.90
59208;DHT22;44977;53.132;6.408;2023-06-05T04:46:11;12.20;99.90
59208;DHT22;44977;53.132;6.408;2023-06-05T04:51:12;12.30;99.90
59208;DHT22;44977;53.132;6.408;2023-06-05T04:56:13;12.40;99.90
59208;DHT22;44977;53.132;6.408;2023-06-05T05:01:14;12.40;99.90
59208;DHT22;44977;53.132;6.408;2023-06-05T05:06:17;12.40;99.90
59208;DHT22;44977;53.132;6.408;2023-06-05T05:11:18;12.40;99.90
59208;DHT22;44977;53.132;6.408;2023-06-05T05:16:18;12.40;99.90
59208;DHT22;44977;53.132;6.408;2023-06-05T05:21:21;12.50;99.90
59208;DHT22;44977;53.132;6.408;2023-06-05T05:26:21;12.50;99.90
59208;DHT22;44977;53.132;6.408;2023-06-05T05:31:22;12.60;99.90
59208;DHT22;44977;53.132;6.408;2023-06-05T05:36:24;12.60;99.90
59208;DHT22;44977;53.132;6.408;2023-06-05T05:41:25;12.70;99.90
59208;DHT22;44977;53.132;6.408;2023-06-05T05:46:27;12.70;99.90
59208;DHT22;44977;53.132;6.408;2023-06-05T05:51:28;12.80;99.90
59208;DHT22;44977;53.132;6.408;2023-06-05T05:56:28;12.90;99.90
59208;DHT22;44977;53.132;6.408;2023-06-05T06:01:29;13.00;99.90
59208;DHT22;44977;53.132;6.408;2023-06-05T06:06:30;13.00;99.90
59208;DHT22;44977;53.132;6.408;2023-06-05T06:11:30;13.20;99.90
59208;DHT22;44977;53.132;6.408;2023-06-05T06:16:32;13.30;99.90
59208;DHT22;44977;53.132;6.408;2023-06-05T06:21:33;13.30;99.90
59208;DHT22;44977;53.132;6.408;2023-06-05T06:26:34;13.40;99.90
59208;DHT22;44977;53.132;6.408;2023-06-05T06:31:37;13.50;99.90
59208;DHT22;44977;53.132;6.408;2023-06-05T06:36:38;13.80;99.90
59208;DHT22;44977;53.132;6.408;2023-06-05T06:41:40;14.10;99.90
59208;DHT22;44977;53.132;6.408;2023-06-05T06:46:41;14.20;99.90
59208;DHT22;44977;53.132;6.408;2023-06-05T06:51:42;14.40;99.90
59208;DHT22;44977;53.132;6.408;2023-06-05T06:56:42;14.60;99.90
59208;DHT22;44977;53.132;6.408;2023-06-05T07:01:45;14.80;99.90
59208;DHT22;44977;53.132;6.408;2023-06-05T07:06:48;15.00;99.90
59208;DHT22;44977;53.132;6.408;2023-06-05T07:11:49;15.20;99.90
59208;DHT22;44977;53.132;6.408;2023-06-05T07:16:50;15.40;99.90
59208;DHT22;44977;53.132;6.408;2023-06-05T07:21:59;15.40;99.90
59208;DHT22;44977;53.132;6.408;2023-06-05T07:27:01;15.60;99.90
59208;DHT22;44977;53.132;6.408;2023-06-05T07:32:03;15.80;99.90
59208;DHT22;44977;53.132;6.408;2023-06-05T07:37:06;16.00;99.90
59208;DHT22;44977;53.132;6.408;2023-06-05T07:42:10;16.30;99.90
59208;DHT22;44977;53.132;6.408;2023-06-05T07:47:11;16.50;99.90
59208;DHT22;44977;53.132;6.408;2023-06-05T07:52:11;16.60;99.90
59208;DHT22;44977;53.132;6.408;2023-06-05T07:57:12;16.70;99.90
59208;DHT22;44977;53.132;6.408;2023-06-05T08:02:13;16.70;99.90
59208;DHT22;44977;53.132;6.408;2023-06-05T08:07:14;17.00;99.90
59208;DHT22;44977;53.132;6.408;2023-06-05T08:12:14;17.20;99.90
59208;DHT22;44977;53.132;6.408;2023-06-05T08:17:15;17.50;99.90
59208;DHT22;44977;53.132;6.408;2023-06-05T08:22:16;17.80;99.90
59208;DHT22;44977;53.132;6.408;2023-06-05T08:27:17;17.90;99.90
59208;DHT22;44977;53.132;6.408;2023-06-05T08:32:18;18.20;99.90
59208;DHT22;44977;53.132;6.408;2023-06-05T08:37:20;18.50;99.90
59208;DHT22;44977;53.132;6.408;2023-06-05T08:42:21;18.80;99.90
59208;DHT22;44977;53.132;6.408;2023-06-05T08:47:28;19.00;99.90
59208;DHT22;44977;53.132;6.408;2023-06-05T08:52:33;19.20;99.90
59208;DHT22;44977;53.132;6.408;2023-06-05T08:57:34;19.30;99.90
59208;DHT22;44977;53.132;6.408;2023-06-05T09:02:39;19.50;99.90
59208;DHT22;44977;53.132;6.408;2023-06-05T09:07:41;19.50;97.10
59208;DHT22;44977;53.132;6.408;2023-06-05T09:12:55;19.60;98.10
59208;DHT22;44977;53.132;6.408;2023-06-05T09:18:09;19.80;97.80
59208;DHT22;44977;53.132;6.408;2023-06-05T09:23:24;19.80;94.90
59208;DHT22;44977;53.132;6.408;2023-06-05T09:28:27;19.80;94.00
59208;DHT22;44977;53.132;6.408;2023-06-05T09:33:31;19.80;94.70
59208;DHT22;44977;53.132;6.408;2023-06-05T09:38:34;19.90;95.40
59208;DHT22;44977;53.132;6.408;2023-06-05T09:43:36;20.10;96.20
59208;DHT22;44977;53.132;6.408;2023-06-05T09:48:41;20.40;95.50
59208;DHT22;44977;53.132;6.408;2023-06-05T09:53:44;20.60;94.50
59208;DHT22;44977;53.132;6.408;2023-06-05T09:58:47;20.60;92.50
59208;DHT22;44977;53.132;6.408;2023-06-05T10:04:00;20.70;91.90
59208;DHT22;44977;53.132;6.408;2023-06-05T10:09:01;20.80;92.50
59208;DHT22;44977;53.132;6.408;2023-06-05T10:14:02;21.00;92.60
59208;DHT22;44977;53.132;6.408;2023-06-05T10:19:04;21.00;90.70
59208;DHT22;44977;53.132;6.408;2023-06-05T10:35:13;21.20;91.00
59208;DHT22;44977;53.132;6.408;2023-06-05T10:40:17;21.30;90.40
59208;DHT22;44977;53.132;6.408;2023-06-05T10:45:31;21.50;90.90
59208;DHT22;44977;53.132;6.408;2023-06-05T10:50:32;21.50;88.90
59208;DHT22;44977;53.132;6.408;2023-06-05T10:55:42;21.60;89.80
59208;DHT22;44977;53.132;6.408;2023-06-05T11:01:18;21.70;88.30
59208;DHT22;44977;53.132;6.408;2023-06-05T11:06:22;21.80;89.20
59208;DHT22;44977;53.132;6.408;2023-06-05T11:11:23;21.90;84.80
59208;DHT22;44977;53.132;6.408;2023-06-05T11:16:31;22.10;86.00
59208;DHT22;44977;53.132;6.408;2023-06-05T11:22:03;22.20;85.70
59208;DHT22;44977;53.132;6.408;2023-06-05T11:27:05;22.20;83.80
59208;DHT22;44977;53.132;6.408;2023-06-05T11:32:11;22.30;85.40
59208;DHT22;44977;53.132;6.408;2023-06-05T11:37:17;22.50;83.30
59208;DHT22;44977;53.132;6.408;2023-06-05T11:42:22;22.60;82.90
59208;DHT22;44977;53.132;6.408;2023-06-05T11:47:27;22.50;82.20
59208;DHT22;44977;53.132;6.408;2023-06-05T11:52:31;22.60;78.60
59208;DHT22;44977;53.132;6.408;2023-06-05T11:57:44;22.50;79.70
59208;DHT22;44977;53.132;6.408;2023-06-05T12:02:47;22.50;79.20
59208;DHT22;44977;53.132;6.408;2023-06-05T12:07:47;22.60;80.80
59208;DHT22;44977;53.132;6.408;2023-06-05T12:12:53;22.50;80.00
59208;DHT22;44977;53.132;6.408;2023-06-05T12:17:55;22.40;80.30
59208;DHT22;44977;53.132;6.408;2023-06-05T12:22:56;22.50;80.90
59208;DHT22;44977;53.132;6.408;2023-06-05T12:27:57;22.60;81.80
59208;DHT22;44977;53.132;6.408;2023-06-05T12:33:04;22.60;80.30
59208;DHT22;44977;53.132;6.408;2023-06-05T12:38:05;22.50;79.60
59208;DHT22;44977;53.132;6.408;2023-06-05T12:43:16;22.50;80.40
59208;DHT22;44977;53.132;6.408;2023-06-05T12:48:20;22.50;80.60
59208;DHT22;44977;53.132;6.408;2023-06-05T12:53:21;22.40;79.50
59208;DHT22;44977;53.132;6.408;2023-06-05T12:58:22;22.40;79.60
59208;DHT22;44977;53.132;6.408;2023-06-05T13:03:23;22.50;80.40
59208;DHT22;44977;53.132;6.408;2023-06-05T13:08:23;22.50;80.00
59208;DHT22;44977;53.132;6.408;2023-06-05T13:13:25;22.30;80.80
59208;DHT22;44977;53.132;6.408;2023-06-05T13:18:27;22.40;81.20
59208;DHT22;44977;53.132;6.408;2023-06-05T13:23:27;22.40;79.00
59208;DHT22;44977;53.132;6.408;2023-06-05T13:28:29;22.40;80.30
59208;DHT22;44977;53.132;6.408;2023-06-05T13:33:30;22.40;80.20
59208;DHT22;44977;53.132;6.408;2023-06-05T13:38:30;22.40;80.30
59208;DHT22;44977;53.132;6.408;2023-06-05T13:43:31;22.20;79.90
59208;DHT22;44977;53.132;6.408;2023-06-05T13:48:35;22.20;80.30
59208;DHT22;44977;53.132;6.408;2023-06-05T13:53:36;22.10;79.40
59208;DHT22;44977;53.132;6.408;2023-06-05T13:58:36;22.00;80.40
59208;DHT22;44977;53.132;6.408;2023-06-05T14:03:37;21.70;79.10
59208;DHT22;44977;53.132;6.408;2023-06-05T14:08:37;21.70;81.70
59208;DHT22;44977;53.132;6.408;2023-06-05T14:13:38;21.80;81.90
59208;DHT22;44977;53.132;6.408;2023-06-05T14:18:40;21.90;79.70
59208;DHT22;44977;53.132;6.408;2023-06-05T14:23:41;21.90;81.10
59208;DHT22;44977;53.132;6.408;2023-06-05T14:28:43;21.70;79.80
59208;DHT22;44977;53.132;6.408;2023-06-05T14:33:43;21.80;81.40
59208;DHT22;44977;53.132;6.408;2023-06-05T14:38:44;21.70;81.30
59208;DHT22;44977;53.132;6.408;2023-06-05T14:43:45;21.50;81.60
59208;DHT22;44977;53.132;6.408;2023-06-05T14:48:45;21.40;80.70
59208;DHT22;44977;53.132;6.408;2023-06-05T14:53:46;21.40;82.00
59208;DHT22;44977;53.132;6.408;2023-06-05T14:58:47;21.20;81.10
59208;DHT22;44977;53.132;6.408;2023-06-05T15:03:48;21.10;81.60
59208;DHT22;44977;53.132;6.408;2023-06-05T15:08:49;21.00;81.20
59208;DHT22;44977;53.132;6.408;2023-06-05T15:13:49;20.90;83.70
59208;DHT22;44977;53.132;6.408;2023-06-05T15:18:50;20.90;81.90
59208;DHT22;44977;53.132;6.408;2023-06-05T15:23:51;20.80;82.50
59208;DHT22;44977;53.132;6.408;2023-06-05T15:28:51;20.80;83.10
59208;DHT22;44977;53.132;6.408;2023-06-05T15:33:52;20.60;83.30
59208;DHT22;44977;53.132;6.408;2023-06-05T15:38:53;20.50;83.30
59208;DHT22;44977;53.132;6.408;2023-06-05T15:43:54;20.40;84.60
59208;DHT22;44977;53.132;6.408;2023-06-05T15:48:54;20.40;84.30
59208;DHT22;44977;53.132;6.408;2023-06-05T15:53:55;20.30;84.60
59208;DHT22;44977;53.132;6.408;2023-06-05T15:58:56;20.40;84.00
59208;DHT22;44977;53.132;6.408;2023-06-05T16:03:57;20.30;85.60
59208;DHT22;44977;53.132;6.408;2023-06-05T16:08:58;20.20;85.30
59208;DHT22;44977;53.132;6.408;2023-06-05T16:13:59;20.10;86.40
59208;DHT22;44977;53.132;6.408;2023-06-05T16:19:00;20.10;86.40
59208;DHT22;44977;53.132;6.408;2023-06-05T16:24:03;20.00;86.10
59208;DHT22;44977;53.132;6.408;2023-06-05T16:29:04;19.90;86.00
59208;DHT22;44977;53.132;6.408;2023-06-05T16:34:10;19.70;86.60
59208;DHT22;44977;53.132;6.408;2023-06-05T16:39:11;19.70;88.00
59208;DHT22;44977;53.132;6.408;2023-06-05T16:44:14;19.90;87.30
59208;DHT22;44977;53.132;6.408;2023-06-05T16:49:15;19.70;87.10
59208;DHT22;44977;53.132;6.408;2023-06-05T16:54:16;19.60;88.30
59208;DHT22;44977;53.132;6.408;2023-06-05T16:59:17;19.60;87.90
59208;DHT22;44977;53.132;6.408;2023-06-05T17:04:17;19.40;89.00
59208;DHT22;44977;53.132;6.408;2023-06-05T17:09:18;19.30;88.50
59208;DHT22;44977;53.132;6.408;2023-06-05T17:14:19;19.00;89.30
59208;DHT22;44977;53.132;6.408;2023-06-05T17:19:20;18.70;90.20
59208;DHT22;44977;53.132;6.408;2023-06-05T17:24:21;18.60;90.80
59208;DHT22;44977;53.132;6.408;2023-06-05T17:29:24;18.30;91.50
59208;DHT22;44977;53.132;6.408;2023-06-05T17:34:25;18.20;91.70
59208;DHT22;44977;53.132;6.408;2023-06-05T17:39:26;18.00;92.30
59208;DHT22;44977;53.132;6.408;2023-06-05T17:44:26;17.80;93.00
59208;DHT22;44977;53.132;6.408;2023-06-05T17:49:28;17.70;93.40
59208;DHT22;44977;53.132;6.408;2023-06-05T17:54:29;17.60;93.70
59208;DHT22;44977;53.132;6.408;2023-06-05T17:59:30;17.40;94.60
59208;DHT22;44977;53.132;6.408;2023-06-05T18:04:30;17.30;94.80
59208;DHT22;44977;53.132;6.408;2023-06-05T18:09:32;17.20;94.90
59208;DHT22;44977;53.132;6.408;2023-06-05T18:14:32;16.90;96.20
59208;DHT22;44977;53.132;6.408;2023-06-05T18:19:33;16.80;96.40
59208;DHT22;44977;53.132;6.408;2023-06-05T18:24:34;16.70;97.00
59208;DHT22;44977;53.132;6.408;2023-06-05T18:29:35;16.50;98.00
59208;DHT22;44977;53.132;6.408;2023-06-05T18:34:36;16.40;99.10
59208;DHT22;44977;53.132;6.408;2023-06-05T18:39:37;16.30;99.80
59208;DHT22;44977;53.132;6.408;2023-06-05T18:44:38;16.00;99.90
59208;DHT22;44977;53.132;6.408;2023-06-05T18:49:38;16.00;99.90
59208;DHT22;44977;53.132;6.408;2023-06-05T18:54:39;15.90;99.90
59208;DHT22;44977;53.132;6.408;2023-06-05T18:59:42;15.70;99.90
59208;DHT22;44977;53.132;6.408;2023-06-05T19:04:42;15.60;99.90
59208;DHT22;44977;53.132;6.408;2023-06-05T19:09:43;15.50;99.90
59208;DHT22;44977;53.132;6.408;2023-06-05T19:14:44;15.40;99.90
59208;DHT22;44977;53.132;6.408;2023-06-05T19:19:45;15.20;99.90
59208;DHT22;44977;53.132;6.408;2023-06-05T19:24:45;15.10;99.90
59208;DHT22;44977;53.132;6.408;2023-06-05T19:29:46;15.00;99.90
59208;DHT22;44977;53.132;6.408;2023-06-05T19:34:47;14.90;99.90
59208;DHT22;44977;53.132;6.408;2023-06-05T19:39:47;14.80;99.90
59208;DHT22;44977;53.132;6.408;2023-06-05T19:44:48;14.60;99.90
59208;DHT22;44977;53.132;6.408;2023-06-05T19:49:49;14.40;99.90
59208;DHT22;44977;53.132;6.408;2023-06-05T19:54:51;14.30;99.90
59208;DHT22;44977;53.132;6.408;2023-06-05T19:59:52;14.30;99.90
59208;DHT22;44977;53.132;6.408;2023-06-05T20:04:53;14.20;99.90
59208;DHT22;44977;53.132;6.408;2023-06-05T20:09:53;14.10;99.90
59208;DHT22;44977;53.132;6.408;2023-06-05T20:14:54;14.00;99.90
59208;DHT22;44977;53.132;6.408;2023-06-05T20:19:55;13.90;99.90
59208;DHT22;44977;53.132;6.408;2023-06-05T20:24:56;13.80;99.90
59208;DHT22;44977;53.132;6.408;2023-06-05T20:29:57;13.80;99.90
59208;DHT22;44977;53.132;6.408;2023-06-05T20:34:58;13.60;99.90
59208;DHT22;44977;53.132;6.408;2023-06-05T20:39:59;13.50;99.90
59208;DHT22;44977;53.132;6.408;2023-06-05T20:45:06;13.50;99.90
59208;DHT22;44977;53.132;6.408;2023-06-05T20:50:08;13.30;99.90
59208;DHT22;44977;53.132;6.408;2023-06-05T20:55:09;13.20;99.90
59208;DHT22;44977;53.132;6.408;2023-06-05T21:00:10;13.20;99.90
59208;DHT22;44977;53.132;6.408;2023-06-05T21:05:11;13.10;99.90
59208;DHT22;44977;53.132;6.408;2023-06-05T21:10:12;13.10;99.90
59208;DHT22;44977;53.132;6.408;2023-06-05T21:15:13;13.00;99.90
59208;DHT22;44977;53.132;6.408;2023-06-05T21:20:14;12.90;99.90
59208;DHT22;44977;53.132;6.408;2023-06-05T21:25:14;12.80;99.90
59208;DHT22;44977;53.132;6.408;2023-06-05T21:30:15;12.80;99.90
59208;DHT22;44977;53.132;6.408;2023-06-05T21:35:16;12.70;99.90
59208;DHT22;44977;53.132;6.408;2023-06-05T21:40:17;12.60;99.90
59208;DHT22;44977;53.132;6.408;2023-06-05T21:45:17;12.60;99.90
59208;DHT22;44977;53.132;6.408;2023-06-05T21:50:18;12.40;99.90
59208;DHT22;44977;53.132;6.408;2023-06-05T21:55:19;12.40;99.90
59208;DHT22;44977;53.132;6.408;2023-06-05T22:00:19;12.40;99.90
59208;DHT22;44977;53.132;6.408;2023-06-05T22:05:21;12.30;99.90
59208;DHT22;44977;53.132;6.408;2023-06-05T22:10:23;12.30;99.90
59208;DHT22;44977;53.132;6.408;2023-06-05T22:15:23;12.20;99.90
59208;DHT22;44977;53.132;6.408;2023-06-05T22:20:25;12.10;99.90
59208;DHT22;44977;53.132;6.408;2023-06-05T22:25:26;12.00;99.90
59208;DHT22;44977;53.132;6.408;2023-06-05T22:30:27;12.00;99.90
59208;DHT22;44977;53.132;6.408;2023-06-05T22:35:27;12.00;99.90
59208;DHT22;44977;53.132;6.408;2023-06-05T22:40:28;11.90;99.90
59208;DHT22;44977;53.132;6.408;2023-06-05T22:45:29;11.80;99.90
59208;DHT22;44977;53.132;6.408;2023-06-05T22:50:30;11.80;99.90
59208;DHT22;44977;53.132;6.408;2023-06-05T22:55:31;11.80;99.90
59208;DHT22;44977;53.132;6.408;2023-06-05T23:00:32;11.70;99.90
59208;DHT22;44977;53.132;6.408;2023-06-05T23:05:32;11.80;99.90
59208;DHT22;44977;53.132;6.408;2023-06-05T23:10:33;11.70;99.90
59208;DHT22;44977;53.132;6.408;2023-06-05T23:15:33;11.70;99.90
59208;DHT22;44977;53.132;6.408;2023-06-05T23:20:43;11.60;99.90
59208;DHT22;44977;53.132;6.408;2023-06-05T23:25:44;11.60;99.90
59208;DHT22;44977;53.132;6.408;2023-06-05T23:30:45;11.60;99.90
59208;DHT22;44977;53.132;6.408;2023-06-05T23:35:45;11.50;99.90
59208;DHT22;44977;53.132;6.408;2023-06-05T23:40:46;11.50;99.90
59208;DHT22;44977;53.132;6.408;2023-06-05T23:45:47;11.40;99.90
59208;DHT22;44977;53.132;6.408;2023-06-05T23:50:48;11.40;99.90
59208;DHT22;44977;53.132;6.408;2023-06-05T23:55:49;11.40;99.90
